createdAt,value
2022-10-22T00:00:40.244Z,10.77
2022-10-22T00:03:07.702Z,9.45
2022-10-22T00:05:35.060Z,7.18
2022-10-22T00:08:02.490Z,9.23
2022-10-22T00:10:29.949Z,14.05
2022-10-22T00:12:57.294Z,13.40
2022-10-22T00:15:24.879Z,15.07
2022-10-22T00:17:52.277Z,11.88
2022-10-22T00:20:19.820Z,24.05
2022-10-22T00:22:47.203Z,15.93
2022-10-22T00:25:14.883Z,12.65
2022-10-22T00:27:42.736Z,10.05
2022-10-22T00:30:11.314Z,14.27
2022-10-22T00:32:39.118Z,23.00
2022-10-22T00:35:07.837Z,14.38
2022-10-22T00:37:35.201Z,9.80
2022-10-22T00:40:02.787Z,11.13
2022-10-22T00:42:33.024Z,8.13
2022-10-22T00:45:04.625Z,9.10
2022-10-22T00:47:42.830Z,7.28
2022-10-22T00:50:18.291Z,10.05
2022-10-22T00:52:45.919Z,9.38
2022-10-22T00:55:15.061Z,9.00
2022-10-22T00:57:43.263Z,7.65
2022-10-22T01:00:11.249Z,11.18
2022-10-22T01:02:39.255Z,8.90
2022-10-22T01:05:07.479Z,8.43
2022-10-22T01:07:44.683Z,10.50
2022-10-22T01:10:21.620Z,8.07
2022-10-22T01:13:07.919Z,8.52
2022-10-22T01:15:44.401Z,9.02
2022-10-22T01:18:36.785Z,6.50
2022-10-22T01:21:16.786Z,7.78
2022-10-22T01:23:59.222Z,7.38
2022-10-22T01:27:04.508Z,7.18
2022-10-22T01:29:41.395Z,11.48
2022-10-22T01:32:15.690Z,15.63
2022-10-22T01:34:47.717Z,6.72
2022-10-22T01:37:17.392Z,8.70
2022-10-22T01:39:47.357Z,10.00
2022-10-22T01:42:15.072Z,13.07
2022-10-22T01:44:42.947Z,8.27
2022-10-22T01:47:34.831Z,10.05
2022-10-22T01:50:17.320Z,8.32
2022-10-22T01:53:02.729Z,7.07
2022-10-22T01:55:36.021Z,9.23
2022-10-22T01:58:27.965Z,8.93
2022-10-22T02:01:22.505Z,5.45
2022-10-22T02:04:11.220Z,12.18
2022-10-22T02:06:40.412Z,9.60
2022-10-22T02:09:09.120Z,9.80
2022-10-22T02:11:37.547Z,8.43
2022-10-22T02:14:07.790Z,11.05
2022-10-22T02:16:39.582Z,10.55
2022-10-22T02:19:17.773Z,9.57
2022-10-22T02:21:45.689Z,8.45
2022-10-22T02:24:13.345Z,8.90
2022-10-22T02:27:06.736Z,7.47
2022-10-22T02:30:06.927Z,8.07
2022-10-22T02:32:56.201Z,6.78
2022-10-22T02:35:26.812Z,8.32
2022-10-22T02:37:57.123Z,6.93
2022-10-22T02:40:25.281Z,7.28
2022-10-22T02:42:53.989Z,12.57
2022-10-22T02:45:21.806Z,8.25
2022-10-22T02:47:49.401Z,9.10
2022-10-22T02:50:17.220Z,7.97
2022-10-22T02:52:44.695Z,7.65
2022-10-22T02:55:12.122Z,9.38
2022-10-22T02:57:39.738Z,10.75
2022-10-22T03:00:08.758Z,7.35
2022-10-22T03:02:36.230Z,11.20
2022-10-22T03:05:04.547Z,15.55
2022-10-22T03:07:31.974Z,12.77
2022-10-22T03:09:59.358Z,14.02
2022-10-22T03:12:26.856Z,14.95
2022-10-22T03:14:54.272Z,12.65
2022-10-22T03:17:21.727Z,13.10
2022-10-22T03:19:49.216Z,13.65
2022-10-22T03:22:35.557Z,12.82
2022-10-22T03:25:10.543Z,13.10
2022-10-22T03:27:40.501Z,14.32
2022-10-22T03:30:09.119Z,16.67
2022-10-22T03:32:36.542Z,116.95
2022-10-22T03:35:05.685Z,93.97
2022-10-22T03:37:34.269Z,98.50
2022-10-22T03:40:02.421Z,38.10
2022-10-22T03:42:29.831Z,21.33
2022-10-22T03:44:57.174Z,40.28
2022-10-22T03:47:24.705Z,50.33
2022-10-22T03:49:52.765Z,21.60
2022-10-22T03:52:20.269Z,19.35
2022-10-22T03:54:47.593Z,10.63
2022-10-22T03:57:15.071Z,14.85
2022-10-22T03:59:44.889Z,27.95
2022-10-22T04:02:13.760Z,10.25
2022-10-22T04:04:41.133Z,43.33
2022-10-22T04:07:08.990Z,56.80
2022-10-22T04:09:36.675Z,20.48
2022-10-22T04:12:06.651Z,21.65
2022-10-22T04:14:34.391Z,12.85
2022-10-22T04:17:02.135Z,30.40
2022-10-22T04:19:29.612Z,10.10
2022-10-22T04:22:00.023Z,17.90
2022-10-22T04:24:27.535Z,17.38
2022-10-22T04:26:55.714Z,27.95
2022-10-22T04:29:23.936Z,15.25
2022-10-22T04:31:51.666Z,17.90
2022-10-22T04:34:19.118Z,12.88
2022-10-22T04:36:46.594Z,16.17
2022-10-22T04:39:14.942Z,49.70
2022-10-22T04:41:42.432Z,17.25
2022-10-22T04:44:12.478Z,16.30
2022-10-22T04:46:44.001Z,35.85
2022-10-22T04:49:11.557Z,16.92
2022-10-22T04:51:39.256Z,31.27
2022-10-22T04:54:06.795Z,18.27
2022-10-22T04:56:34.192Z,12.32
2022-10-22T04:59:04.959Z,27.80
2022-10-22T05:01:39.935Z,10.98
2022-10-22T05:04:16.608Z,15.10
2022-10-22T05:06:44.582Z,17.50
2022-10-22T05:09:15.878Z,13.70
2022-10-22T05:11:46.436Z,14.20
2022-10-22T05:14:15.121Z,15.38
2022-10-22T05:16:42.895Z,9.40
2022-10-22T05:19:19.820Z,12.30
2022-10-22T05:21:47.206Z,9.40
2022-10-22T05:24:14.743Z,12.88
2022-10-22T05:26:42.464Z,11.25
2022-10-22T05:29:09.873Z,10.65
2022-10-22T05:31:39.107Z,15.68
2022-10-22T05:34:06.544Z,13.48
2022-10-22T05:36:34.104Z,13.35
2022-10-22T05:39:01.560Z,15.10
2022-10-22T05:41:30.225Z,12.65
2022-10-22T05:43:59.730Z,9.57
2022-10-22T05:46:29.813Z,13.48
2022-10-22T05:49:00.423Z,9.82
2022-10-22T05:51:29.559Z,12.23
2022-10-22T05:54:01.555Z,12.50
2022-10-22T05:56:32.147Z,14.63
2022-10-22T05:59:00.294Z,15.05
2022-10-22T06:01:30.345Z,12.63
2022-10-22T06:04:00.571Z,13.50
2022-10-22T06:06:44.852Z,13.35
2022-10-22T06:09:17.141Z,12.00
2022-10-22T06:11:45.395Z,10.82
2022-10-22T06:14:12.871Z,16.23
2022-10-22T06:16:40.925Z,10.48
2022-10-22T06:19:09.719Z,10.23
2022-10-22T06:21:37.825Z,20.08
2022-10-22T18:49:07.350Z,30.77
2022-10-22T18:51:35.783Z,30.10
2022-10-22T18:54:18.303Z,34.88
2022-10-22T18:56:49.954Z,27.58
2022-10-22T18:59:20.731Z,30.02
2022-10-22T19:01:48.970Z,33.40
2022-10-22T19:04:16.766Z,38.33
2022-10-22T19:06:45.913Z,32.17
2022-10-22T19:09:15.722Z,31.25
2022-10-22T19:11:45.221Z,27.25
2022-10-22T19:14:15.000Z,26.23
2022-10-22T19:16:42.522Z,31.58
2022-10-22T19:19:10.982Z,33.55
2022-10-22T19:21:38.539Z,27.13
2022-10-22T19:24:07.050Z,33.15
2022-10-22T19:26:34.795Z,37.75
2022-10-22T19:29:02.463Z,29.77
2022-10-22T19:31:31.375Z,35.92
2022-10-22T19:34:02.313Z,34.80
2022-10-22T19:36:31.070Z,38.30
2022-10-22T19:38:59.258Z,38.25
2022-10-22T19:41:29.095Z,33.80
2022-10-22T19:43:58.387Z,32.88
2022-10-22T19:46:27.237Z,38.65
2022-10-22T19:48:57.241Z,38.10
2022-10-22T19:51:27.659Z,34.80
2022-10-22T19:54:00.558Z,37.15
2022-10-22T19:56:28.528Z,39.65
2022-10-22T19:58:56.104Z,41.08
2022-10-22T20:01:23.694Z,41.63
2022-10-22T20:03:51.268Z,37.00
2022-10-22T20:06:19.424Z,38.53
2022-10-22T20:08:47.083Z,36.13
2022-10-22T20:11:20.442Z,39.05
2022-10-22T20:13:51.383Z,35.55
2022-10-22T20:16:25.332Z,36.67
2022-10-22T20:18:53.061Z,40.25
2022-10-22T20:21:21.170Z,36.97
2022-10-22T20:23:52.516Z,40.30
2022-10-22T20:26:21.523Z,40.90
2022-10-22T20:28:48.839Z,37.72
2022-10-22T20:31:20.471Z,40.60
2022-10-22T20:33:50.488Z,37.67
2022-10-22T21:13:14.259Z,53.40
2022-10-22T21:15:42.296Z,47.95
2022-10-22T21:18:09.717Z,44.25
2022-10-22T21:20:39.819Z,48.22
2022-10-22T21:23:07.834Z,48.92
2022-10-22T21:25:38.494Z,44.47
2022-10-22T21:28:09.403Z,49.88
2022-10-22T21:30:36.857Z,51.83
2022-10-22T21:33:04.264Z,52.55
2022-10-22T21:35:32.477Z,46.95
2022-10-22T21:37:59.922Z,46.15
2022-10-22T21:40:28.184Z,45.83
2022-10-22T21:42:55.583Z,42.28
2022-10-22T21:45:22.950Z,44.25
2022-10-22T21:47:50.397Z,44.13
2022-10-22T21:50:17.739Z,37.75
2022-10-22T21:52:45.185Z,39.33
2022-10-22T21:55:12.566Z,41.03
2022-10-22T21:57:40.137Z,42.00
2022-10-22T22:00:09.327Z,45.85
2022-10-22T22:02:36.683Z,42.53
2022-10-22T22:05:04.187Z,46.80
2022-10-22T22:07:32.242Z,41.80
2022-10-22T22:09:59.571Z,39.75
2022-10-22T22:12:27.001Z,38.85
2022-10-22T22:14:54.367Z,41.30
2022-10-22T22:17:21.781Z,42.65
2022-10-22T22:19:49.094Z,45.00
2022-10-22T22:22:16.512Z,40.17
2022-10-22T22:37:41.653Z,42.70
2022-10-22T22:40:09.805Z,39.53
2022-10-22T22:42:37.130Z,41.55
2022-10-22T22:45:04.908Z,43.78
2022-10-22T22:47:32.228Z,40.00
2022-10-22T22:49:59.562Z,41.58
2022-10-22T22:52:26.952Z,40.53
2022-10-22T22:54:54.376Z,45.72
2022-10-22T22:57:21.694Z,43.25
2022-10-22T22:59:52.092Z,41.95
2022-10-22T23:02:19.650Z,40.00
2022-10-22T23:04:47.711Z,42.47
2022-10-22T23:07:15.154Z,43.33
2022-10-22T23:09:42.512Z,44.95
2022-10-22T23:12:09.902Z,45.85
2022-10-22T23:14:37.252Z,48.50
2022-10-22T23:17:04.685Z,50.25
2022-10-22T23:19:32.073Z,51.47
2022-10-22T23:21:59.394Z,44.40
2022-10-22T23:24:29.327Z,46.55
2022-10-22T23:26:59.882Z,50.63
2022-10-22T23:29:30.043Z,49.85
2022-10-22T23:32:01.503Z,57.20
2022-10-22T23:34:30.264Z,55.83
2022-10-22T23:36:58.960Z,49.40
2022-10-22T23:39:28.714Z,54.25
2022-10-22T23:41:56.596Z,50.92
2022-10-22T23:44:24.715Z,50.10
2022-10-22T23:46:52.511Z,49.42
2022-10-22T23:49:19.865Z,48.78
2022-10-22T23:51:47.238Z,51.22
2022-10-22T23:54:17.860Z,49.78
2022-10-22T23:56:45.273Z,51.78
